^^
Datos históricos de la estación: Murcia-Puente Tocinos
 
Diario Informe para Junio 24, 2024 Unidades:  Métrico    Ingés   Ambas
Diario Semanal Mensual Anual
  Actual: Máxima: Mínima: Promedio:
Temperatura: 23.4 °C 23.4 °C 21.1 °C 22.1 °C
Punto de rocio: 17.9 °C 18.7 °C 17.1 °C 17.8 °C
Humedad: 71.5% 80% 71% 77%
Velocidad viento: 4.9km/h 10.9km/h 0km/h 4.3km/h
Racha viento: 3.2km/h 7.6km/h - -
VientoONO - - Este
Presión: 1014.1 hPa 1014.8 hPa 1013.5 hPa -
Precipitación: 0.0 mm      
 
 
Tabla de datos para Junio 24, 2024
Hora Temperatura Punto de rocio Presión Viento Velocidad viento Racha viento Humedad Intensidad lluvia(por hora) Nubes
00:04 23.3 °C 17.7 °C 1014.7 hPa NNE 7.2 km/h 7.6 km/h 71% 0.0 mm
00:09 23.2 °C 17.7 °C 1014.7 hPa NE 10.9 km/h 7.6 km/h 71% 0.0 mm
00:14 23.2 °C 17.9 °C 1014.7 hPa NNE 10.7 km/h 6.4 km/h 71.9% 0.0 mm
00:19 23.2 °C 18 °C 1014.7 hPa NNE 9.5 km/h 7.6 km/h 72.7% 0.0 mm
00:24 23.1 °C 18 °C 1014.7 hPa NNE 10 km/h 7.6 km/h 73.1% 0.0 mm
00:29 23.1 °C 18.2 °C 1014.8 hPa NNE 8.2 km/h 7.6 km/h 74% 0.0 mm
00:34 23.1 °C 18.2 °C 1014.8 hPa NE 8 km/h 6.4 km/h 74% 0.0 mm
00:39 23 °C 18.1 °C 1014.8 hPa NE 7.7 km/h 6.4 km/h 74% 0.0 mm
00:44 23 °C 18.1 °C 1014.8 hPa NE 7.4 km/h 5.8 km/h 74% 0.0 mm
00:49 22.9 °C 18.2 °C 1014.8 hPa NE 7.1 km/h 5.8 km/h 74.8% 0.0 mm
00:54 22.9 °C 18.2 °C 1014.8 hPa NE 8.4 km/h 5 km/h 75% 0.0 mm
00:59 22.9 °C 18.3 °C 1014.8 hPa NE 5 km/h 5 km/h 75.5% 0.0 mm
01:04 22.9 °C 18.4 °C 1014.7 hPa NE 7.1 km/h 4.7 km/h 76% 0.0 mm
01:09 22.8 °C 18.3 °C 1014.7 hPa NE 6.5 km/h 4.7 km/h 76% 0.0 mm
01:14 22.8 °C 18.3 °C 1014.7 hPa NE 6.2 km/h 4.7 km/h 76% 0.0 mm
01:19 22.8 °C 18.6 °C 1014.7 hPa NE 7.3 km/h 4.7 km/h 77% 0.0 mm
01:24 22.8 °C 18.6 °C 1014.7 hPa NNE 6.6 km/h 4.7 km/h 77% 0.0 mm
01:29 22.8 °C 18.6 °C 1014.7 hPa NE 6.6 km/h 4.7 km/h 77% 0.0 mm
01:34 22.7 °C 18.6 °C 1014.6 hPa NE 8.1 km/h 4.7 km/h 77.6% 0.0 mm
01:39 22.7 °C 18.7 °C 1014.6 hPa NE 6.7 km/h 4.7 km/h 78% 0.0 mm
01:44 22.7 °C 18.7 °C 1014.6 hPa NE 7.9 km/h 4.7 km/h 78% 0.0 mm
01:49 22.7 °C 18.6 °C 1014.6 hPa NE 7.4 km/h 5 km/h 78% 0.0 mm
01:54 22.6 °C 18.6 °C 1014.6 hPa NE 7.1 km/h 5 km/h 78% 0.0 mm
01:59 22.6 °C 18.6 °C 1014.6 hPa NE 5.3 km/h 5 km/h 78% 0.0 mm
02:04 22.6 °C 18.6 °C 1014.4 hPa NNE 6.2 km/h 3.9 km/h 78% 0.0 mm
02:09 22.6 °C 18.6 °C 1014.4 hPa ENE 5.7 km/h 3.9 km/h 78% 0.0 mm
02:14 22.6 °C 18.6 °C 1014.4 hPa ENE 4.5 km/h 3.9 km/h 78% 0.0 mm
02:19 22.6 °C 18.6 °C 1014.2 hPa NE 3.8 km/h 3.9 km/h 78% 0.0 mm
02:24 22.6 °C 18.5 °C 1014.2 hPa NE 4.7 km/h 2.9 km/h 78% 0.0 mm
02:29 22.5 °C 18.4 °C 1014.2 hPa ENE 3.7 km/h 2.9 km/h 78% 0.0 mm
02:34 22.4 °C 18.4 °C 1014.2 hPa ENE 3.9 km/h 2.9 km/h 78% 0.0 mm
02:39 22.4 °C 18.3 °C 1014.2 hPa Este 4.5 km/h 2.9 km/h 77.7% 0.0 mm
02:44 22.2 °C 17.8 °C 1014.2 hPa Este 5.9 km/h 2.9 km/h 76.1% 0.0 mm
02:49 22.2 °C 17.7 °C 1014.1 hPa Este 5.4 km/h 3.2 km/h 76% 0.0 mm
02:54 22.1 °C 17.6 °C 1014.1 hPa ENE 5.1 km/h 3.2 km/h 75.6% 0.0 mm
02:59 22.1 °C 17.5 °C 1014.1 hPa ENE 5 km/h 3.2 km/h 75.4% 0.0 mm
03:04 22.1 °C 17.7 °C 1014.0 hPa Este 4.4 km/h 3.2 km/h 76% 0.0 mm
03:09 22.1 °C 17.7 °C 1014.0 hPa Este 4.3 km/h 3.2 km/h 76% 0.0 mm
03:14 22.2 °C 17.7 °C 1014.0 hPa Este 1.7 km/h 2.9 km/h 76% 0.0 mm
03:19 22.2 °C 17.8 °C 1013.9 hPa Calm   2.9 km/h 76% 0.0 mm
03:24 22.2 °C 17.8 °C 1013.9 hPa Este 3.5 km/h   76% 0.0 mm
03:29 22.2 °C 17.5 °C 1013.9 hPa ENE 3.8 km/h 2.3 km/h 75% 0.0 mm
03:34 22.1 °C 17.4 °C 1013.8 hPa ENE 1.2 km/h 2.3 km/h 75% 0.0 mm
03:39 22.1 °C 17.4 °C 1013.8 hPa ENE 0.5 km/h 2.3 km/h 75% 0.0 mm
03:44 22.2 °C 17.8 °C 1013.8 hPa ENE 3.5 km/h   76.4% 0.0 mm
03:49 22.2 °C 18 °C 1013.8 hPa ENE 2.7 km/h   77% 0.0 mm
03:54 22.2 °C 18 °C 1013.8 hPa NE 3.8 km/h   77% 0.0 mm
03:59 22.3 °C 18.3 °C 1013.8 hPa North 3.8 km/h 2.9 km/h 78% 0.0 mm
04:04 22.3 °C 18.3 °C 1013.6 hPa ONO 4.7 km/h 2.9 km/h 78% 0.0 mm
04:09 22.2 °C 18.2 °C 1013.6 hPa ONO 0.3 km/h 2.9 km/h 78% 0.0 mm
04:14 22.2 °C 18.2 °C 1013.6 hPa Calm   2.3 km/h 78% 0.0 mm
04:19 22.1 °C 18.1 °C 1013.6 hPa Calm   2.3 km/h 78% 0.0 mm
04:24 22 °C 18 °C 1013.6 hPa NE 4.4 km/h   78% 0.0 mm
04:29 21.8 °C 17.7 °C 1013.7 hPa ENE 4.8 km/h 2.3 km/h 77.3% 0.0 mm
04:34 21.7 °C 17.3 °C 1013.7 hPa Este 4.3 km/h 2.3 km/h 76.1% 0.0 mm
04:39 21.6 °C 17.2 °C 1013.7 hPa Este 6.1 km/h 3.9 km/h 76.1% 0.0 mm
04:44 21.5 °C 17.3 °C 1013.7 hPa Este 5.8 km/h 3.9 km/h 77% 0.0 mm
04:49 21.4 °C 17.2 °C 1013.6 hPa Este 4.3 km/h 3.9 km/h 77% 0.0 mm
04:54 21.4 °C 17.2 °C 1013.6 hPa Este 5 km/h 3.9 km/h 77% 0.0 mm
04:59 21.4 °C 17.2 °C 1013.6 hPa Este 6.1 km/h 3.9 km/h 77% 0.0 mm
05:04 21.4 °C 17.2 °C 1013.6 hPa Este 7.5 km/h 3.2 km/h 77% 0.0 mm
05:09 21.4 °C 17.2 °C 1013.6 hPa Este 7.2 km/h 5 km/h 77% 0.0 mm
05:14 21.3 °C 17.1 °C 1013.6 hPa Este 5.2 km/h 5 km/h 77% 0.0 mm
05:19 21.3 °C 17.1 °C 1013.6 hPa ESE 5.6 km/h 5 km/h 77% 0.0 mm
05:24 21.3 °C 17.1 °C 1013.6 hPa ESE 5.2 km/h 3.2 km/h 77% 0.0 mm
05:29 21.3 °C 17.1 °C 1013.6 hPa ESE 3.1 km/h 3.2 km/h 77% 0.0 mm
05:34 21.3 °C 17.2 °C 1013.5 hPa ESE 3.7 km/h 2.9 km/h 77.6% 0.0 mm
05:39 21.3 °C 17.3 °C 1013.5 hPa Este 3.8 km/h 2.9 km/h 78% 0.0 mm
05:44 21.3 °C 17.3 °C 1013.5 hPa Este 3.7 km/h 2.9 km/h 78% 0.0 mm
05:49 21.3 °C 17.3 °C 1013.5 hPa Este 2.6 km/h 2.9 km/h 78% 0.0 mm
05:54 21.4 °C 17.4 °C 1013.5 hPa Este 1.8 km/h   78% 0.0 mm
05:59 21.3 °C 17.3 °C 1013.6 hPa Este 3.7 km/h   78% 0.0 mm
06:04 21.3 °C 17.3 °C 1013.6 hPa Este 2 km/h   78% 0.0 mm
06:09 21.3 °C 17.4 °C 1013.6 hPa Este 1.5 km/h   78.4% 0.0 mm
06:14 21.3 °C 17.5 °C 1013.6 hPa Este 3.7 km/h   79% 0.0 mm
06:19 21.3 °C 17.5 °C 1013.6 hPa Este 1 km/h 2.3 km/h 79% 0.0 mm
06:24 21.3 °C 17.5 °C 1013.6 hPa Calm   2.3 km/h 79% 0.0 mm
06:29 21.2 °C 17.4 °C 1013.6 hPa Este 1.9 km/h 2.3 km/h 79% 0.0 mm
06:34 21.2 °C 17.4 °C 1013.5 hPa Este 2.4 km/h   79% 0.0 mm
06:39 21.2 °C 17.4 °C 1013.5 hPa Este 1.3 km/h   79% 0.0 mm
06:44 21.2 °C 17.4 °C 1013.5 hPa Calm     79% 0.0 mm
06:49 21.2 °C 17.4 °C 1013.5 hPa NNO 3.9 km/h 2.3 km/h 79.1% 0.0 mm
06:54 21.2 °C 17.4 °C 1013.5 hPa ONO 2 km/h 2.3 km/h 79% 0.0 mm
06:59 21.2 °C 17.6 °C 1013.6 hPa Calm   2.3 km/h 79.9% 0.0 mm
07:04 21.2 °C 17.6 °C 1013.6 hPa Calm     80% 0.0 mm
07:09 21.2 °C 17.6 °C 1013.6 hPa Calm     80% 0.0 mm
07:14 21.2 °C 17.5 °C 1013.6 hPa Este 1.7 km/h   79.4% 0.0 mm
07:19 21.2 °C 17.5 °C 1013.6 hPa ESE 3.6 km/h   79.6% 0.0 mm
07:24 21.1 °C 17.4 °C 1013.6 hPa Este 5.1 km/h   79.1% 0.0 mm
07:29 21.2 °C 17.6 °C 1013.8 hPa ESE 2.8 km/h 2.9 km/h 80% 0.0 mm
07:34 21.2 °C 17.6 °C 1013.8 hPa Calm   2.9 km/h 80% 0.0 mm
07:39 21.2 °C 17.6 °C 1013.8 hPa Calm   2.9 km/h 79.7% 0.0 mm
07:44 21.3 °C 17.5 °C 1013.9 hPa Este 4.5 km/h   79% 0.0 mm
07:49 21.5 °C 17.5 °C 1013.9 hPa Este 7.4 km/h 2.9 km/h 78.3% 0.0 mm
07:54 21.5 °C 17.4 °C 1013.9 hPa ESE 5.8 km/h 2.9 km/h 77.4% 0.0 mm
07:59 21.6 °C 17.4 °C 1013.9 hPa ESE 4.8 km/h 3.9 km/h 77% 0.0 mm
08:04 21.8 °C 17.4 °C 1013.8 hPa ESE 4.9 km/h 3.9 km/h 76% 0.0 mm
08:09 21.8 °C 17.2 °C 1013.8 hPa SE 2.1 km/h 3.9 km/h 75% 0.0 mm
08:14 21.9 °C 17.3 °C 1014.0 hPa Calm   2.9 km/h 75% 0.0 mm
08:19 22.2 °C 17.5 °C 1014.0 hPa Calm   2.9 km/h 74.8% 0.0 mm
08:24 22.3 °C 17.4 °C 1014.0 hPa Calm     73.4% 0.0 mm
08:29 22.5 °C 17.5 °C 1014.0 hPa Calm     73% 0.0 mm
08:34 22.8 °C 17.6 °C 1013.9 hPa ONO 0.8 km/h   72.6% 0.0 mm
08:39 23 °C 17.5 °C 1013.9 hPa ONO 7.1 km/h 2.3 km/h 71.2% 0.0 mm
08:44 23.1 °C 17.6 °C 1014.0 hPa Oeste 5.3 km/h 2.3 km/h 71% 0.0 mm
08:49 23.2 °C 17.6 °C 1014.0 hPa OSO 5 km/h 3.2 km/h 71% 0.0 mm
08:54 23.2 °C 17.7 °C 1014.0 hPa SO 4.6 km/h 3.2 km/h 71.1% 0.0 mm
08:59 23.4 °C 17.9 °C 1014.1 hPa ONO 4.9 km/h 3.2 km/h 71.5% 0.0 mm
Murcia-Puente Tocinos, España
Compliments of Weather Underground - 2 mb

La estación de MeteoMurcia.com, publica sus datos en los siguientes proyectos:

Weather Underground PWS IMURCIAP2 Meteoclimatic www.awekas.at

Web Analytics

Clicky